ETD615 OMAA-OEJN
Flight info
| Callsign | ETD615 |
|---|---|
| Flight time | 1h 27m |
| Altitude | 34000 |
| Route | ATUDO M318 GOLGU M550 RIBOT/N0453F280 M550 MEVDO Y511 ITRUX/N0468F340 Y511 ASMIS T218 IMGUT M309 VEMEM |
| Aircraft | A321/M-SDE3FGHIRWY/LB1 |
Departure
| Time | 2026-05-04 12:36 |
|---|---|
| Airport | Zayed International Airport (OMAA) |
Arrival
| Time | 2026-05-04 14:03 |
|---|---|
| Airport | King Abdulaziz International Airport (OEJN) |
| Time | Latitude | Longitude | Altitude | Speed | Heading |
|---|---|---|---|---|---|
| 2026-05-04 12:12 | 24.42898 | 54.64768 | 69 ft | 0 kts | 225° |
| 2026-05-04 12:26 | 24.42901 | 54.64772 | 65 ft | 4 kts | 225° |
| 2026-05-04 12:26 | 24.42920 | 54.64793 | 70 ft | 4 kts | 225° |
| 2026-05-04 12:26 | 24.42939 | 54.64814 | 65 ft | 3 kts | 225° |
| 2026-05-04 12:26 | 24.42956 | 54.64829 | 68 ft | 4 kts | 205° |
| 2026-05-04 12:27 | 24.42979 | 54.64832 | 72 ft | 4 kts | 149° |
| 2026-05-04 12:27 | 24.42997 | 54.64814 | 69 ft | 4 kts | 128° |
| 2026-05-04 12:27 | 24.43007 | 54.64800 | 68 ft | 0 kts | 128° |
| 2026-05-04 12:29 | 24.43006 | 54.64801 | 68 ft | 0 kts | 128° |
| 2026-05-04 12:29 | 24.42986 | 54.64830 | 65 ft | 11 kts | 128° |
| 2026-05-04 12:30 | 24.42931 | 54.64907 | 72 ft | 13 kts | 128° |
| 2026-05-04 12:30 | 24.42888 | 54.64995 | 76 ft | 13 kts | 95° |
| 2026-05-04 12:30 | 24.42922 | 54.65086 | 72 ft | 13 kts | 44° |
| 2026-05-04 12:30 | 24.42956 | 54.65174 | 75 ft | 13 kts | 94° |
| 2026-05-04 12:31 | 24.42918 | 54.65263 | 70 ft | 13 kts | 128° |
| 2026-05-04 12:31 | 24.42852 | 54.65357 | 67 ft | 20 kts | 128° |
| 2026-05-04 12:31 | 24.42759 | 54.65488 | 72 ft | 22 kts | 127° |
| 2026-05-04 12:31 | 24.42666 | 54.65619 | 65 ft | 22 kts | 128° |
| 2026-05-04 12:32 | 24.42573 | 54.65748 | 70 ft | 22 kts | 128° |
| 2026-05-04 12:32 | 24.42393 | 54.66002 | 69 ft | 20 kts | 129° |
| 2026-05-04 12:32 | 24.42306 | 54.66123 | 71 ft | 20 kts | 126° |
| 2026-05-04 12:33 | 24.42221 | 54.66244 | 72 ft | 20 kts | 128° |
| 2026-05-04 12:33 | 24.42134 | 54.66365 | 67 ft | 20 kts | 128° |
| 2026-05-04 12:33 | 24.42053 | 54.66482 | 74 ft | 17 kts | 122° |
| 2026-05-04 12:33 | 24.42056 | 54.66603 | 74 ft | 17 kts | 54° |
| 2026-05-04 12:34 | 24.42142 | 54.66681 | 64 ft | 11 kts | 38° |
| 2026-05-04 12:34 | 24.42204 | 54.66668 | 70 ft | 9 kts | 312° |
| 2026-05-04 12:34 | 24.42212 | 54.66657 | 69 ft | 0 kts | 308° |
| 2026-05-04 12:35 | 24.42227 | 54.66636 | 69 ft | 18 kts | 308° |
| 2026-05-04 12:35 | 24.42450 | 54.66325 | 71 ft | 83 kts | 308° |
| 2026-05-04 12:35 | 24.42925 | 54.65655 | 70 ft | 137 kts | 308° |
| 2026-05-04 12:35 | 24.43600 | 54.64705 | 119 ft | 174 kts | 307° |
| 2026-05-04 12:36 | 24.44332 | 54.63720 | 837 ft | 159 kts | 310° |
| 2026-05-04 12:36 | 24.45048 | 54.62819 | 1503 ft | 157 kts | 310° |
| 2026-05-04 12:36 | 24.45743 | 54.61849 | 1946 ft | 170 kts | 308° |
| 2026-05-04 12:36 | 24.46477 | 54.60759 | 2108 ft | 186 kts | 302° |
| 2026-05-04 12:37 | 24.46808 | 54.59334 | 2243 ft | 206 kts | 267° |
| 2026-05-04 12:37 | 24.46189 | 54.57851 | 2372 ft | 230 kts | 234° |
| 2026-05-04 12:37 | 24.45048 | 54.56511 | 2464 ft | 252 kts | 229° |
| 2026-05-04 12:37 | 24.43772 | 54.55112 | 2693 ft | 267 kts | 228° |
| 2026-05-04 12:38 | 24.42428 | 54.53668 | 3143 ft | 273 kts | 227° |
| 2026-05-04 12:38 | 24.41066 | 54.52209 | 3663 ft | 274 kts | 227° |
| 2026-05-04 12:38 | 24.39699 | 54.50731 | 4127 ft | 278 kts | 229° |
| 2026-05-04 12:38 | 24.38317 | 54.49223 | 4595 ft | 282 kts | 228° |
| 2026-05-04 12:39 | 24.36921 | 54.47693 | 5053 ft | 286 kts | 229° |
| 2026-05-04 12:39 | 24.35511 | 54.46142 | 5539 ft | 288 kts | 230° |
| 2026-05-04 12:39 | 24.34092 | 54.44579 | 6051 ft | 290 kts | 230° |
| 2026-05-04 12:39 | 24.32663 | 54.43004 | 6521 ft | 292 kts | 230° |
| 2026-05-04 12:40 | 24.31228 | 54.41425 | 7015 ft | 293 kts | 230° |
| 2026-05-04 12:40 | 24.29785 | 54.39837 | 7520 ft | 294 kts | 230° |
| 2026-05-04 12:40 | 24.28355 | 54.38266 | 8009 ft | 296 kts | 230° |
| 2026-05-04 12:40 | 24.26901 | 54.36666 | 8506 ft | 297 kts | 230° |
| 2026-05-04 12:41 | 24.25441 | 54.35058 | 9029 ft | 297 kts | 230° |
| 2026-05-04 12:41 | 24.23980 | 54.33448 | 9549 ft | 299 kts | 230° |
| 2026-05-04 12:41 | 24.22508 | 54.31830 | 10001 ft | 300 kts | 230° |
| 2026-05-04 12:41 | 24.20995 | 54.30162 | 10155 ft | 316 kts | 230° |
| 2026-05-04 12:42 | 24.19412 | 54.28415 | 10269 ft | 331 kts | 229° |
| 2026-05-04 12:42 | 24.17750 | 54.26587 | 10388 ft | 345 kts | 229° |
| 2026-05-04 12:42 | 24.16021 | 54.24689 | 10516 ft | 359 kts | 229° |
| 2026-05-04 12:42 | 24.14226 | 54.22720 | 10619 ft | 371 kts | 228° |
| 2026-05-04 12:43 | 24.12372 | 54.20692 | 10805 ft | 381 kts | 228° |
| 2026-05-04 12:43 | 24.10488 | 54.18635 | 11183 ft | 384 kts | 228° |
| 2026-05-04 12:43 | 24.08614 | 54.16590 | 11578 ft | 387 kts | 228° |
| 2026-05-04 12:43 | 24.06709 | 54.14504 | 12000 ft | 389 kts | 228° |
| 2026-05-04 12:44 | 24.04792 | 54.12406 | 12415 ft | 391 kts | 227° |
| 2026-05-04 12:44 | 24.02861 | 54.10296 | 12837 ft | 393 kts | 227° |
| 2026-05-04 12:44 | 24.00922 | 54.08174 | 13257 ft | 395 kts | 229° |
| 2026-05-04 12:44 | 23.99192 | 54.05849 | 13653 ft | 394 kts | 239° |
| 2026-05-04 12:45 | 23.97786 | 54.03274 | 14025 ft | 395 kts | 242° |
| 2026-05-04 12:45 | 23.96417 | 54.00665 | 14413 ft | 397 kts | 242° |
| 2026-05-04 12:45 | 23.95033 | 53.98039 | 14811 ft | 399 kts | 242° |
| 2026-05-04 12:45 | 23.93641 | 53.95409 | 15207 ft | 401 kts | 242° |
| 2026-05-04 12:46 | 23.92234 | 53.92760 | 15596 ft | 404 kts | 241° |
| 2026-05-04 12:46 | 23.90819 | 53.90100 | 15995 ft | 406 kts | 242° |
| 2026-05-04 12:46 | 23.89397 | 53.87423 | 16412 ft | 408 kts | 242° |
| 2026-05-04 12:46 | 23.87971 | 53.84730 | 16815 ft | 410 kts | 243° |
| 2026-05-04 12:47 | 23.86538 | 53.82023 | 17208 ft | 413 kts | 241° |
| 2026-05-04 12:47 | 23.85095 | 53.79301 | 17607 ft | 415 kts | 240° |
| 2026-05-04 12:47 | 23.83645 | 53.76563 | 18004 ft | 417 kts | 242° |
| 2026-05-04 12:47 | 23.82185 | 53.73809 | 18342 ft | 419 kts | 240° |
| 2026-05-04 12:48 | 23.80719 | 53.71051 | 18685 ft | 421 kts | 242° |
| 2026-05-04 12:48 | 23.79250 | 53.68289 | 19053 ft | 421 kts | 241° |
| 2026-05-04 12:48 | 23.77773 | 53.65518 | 19443 ft | 421 kts | 241° |
| 2026-05-04 12:48 | 23.76321 | 53.62792 | 19787 ft | 422 kts | 241° |
| 2026-05-04 12:49 | 23.74842 | 53.60012 | 20056 ft | 425 kts | 240° |
| 2026-05-04 12:49 | 23.73355 | 53.57225 | 20381 ft | 426 kts | 240° |
| 2026-05-04 12:49 | 23.71868 | 53.54438 | 20735 ft | 426 kts | 240° |
| 2026-05-04 12:49 | 23.70382 | 53.51651 | 21016 ft | 428 kts | 240° |
| 2026-05-04 12:50 | 23.68881 | 53.48835 | 21289 ft | 430 kts | 240° |
| 2026-05-04 12:50 | 23.67380 | 53.46004 | 21588 ft | 431 kts | 240° |
| 2026-05-04 12:50 | 23.65882 | 53.43166 | 21892 ft | 432 kts | 241° |
| 2026-05-04 12:50 | 23.64382 | 53.40319 | 22126 ft | 434 kts | 240° |
| 2026-05-04 12:51 | 23.62871 | 53.37465 | 22417 ft | 436 kts | 240° |
| 2026-05-04 12:51 | 23.61347 | 53.34596 | 22696 ft | 437 kts | 240° |
| 2026-05-04 12:51 | 23.59820 | 53.31724 | 22969 ft | 439 kts | 240° |
| 2026-05-04 12:51 | 23.58288 | 53.28844 | 23206 ft | 440 kts | 240° |
| 2026-05-04 12:52 | 23.56750 | 53.25954 | 23452 ft | 442 kts | 240° |
| 2026-05-04 12:52 | 23.55204 | 53.23049 | 23687 ft | 443 kts | 240° |
| 2026-05-04 12:52 | 23.53657 | 53.20145 | 23918 ft | 444 kts | 240° |
| 2026-05-04 12:52 | 23.52105 | 53.17235 | 24137 ft | 445 kts | 240° |
| 2026-05-04 12:53 | 23.50551 | 53.14319 | 24379 ft | 446 kts | 240° |
| 2026-05-04 12:53 | 23.48989 | 53.11392 | 24605 ft | 447 kts | 240° |
| 2026-05-04 12:53 | 23.47425 | 53.08466 | 24828 ft | 448 kts | 240° |
| 2026-05-04 12:53 | 23.45853 | 53.05530 | 25041 ft | 449 kts | 240° |
| 2026-05-04 12:54 | 23.44281 | 53.02588 | 25257 ft | 450 kts | 240° |
| 2026-05-04 12:54 | 23.42711 | 52.99643 | 25466 ft | 451 kts | 240° |
| 2026-05-04 12:54 | 23.41137 | 52.96685 | 25678 ft | 452 kts | 240° |
| 2026-05-04 12:54 | 23.39586 | 52.93757 | 25920 ft | 452 kts | 241° |
| 2026-05-04 12:55 | 23.38041 | 52.90782 | 26180 ft | 452 kts | 242° |
| 2026-05-04 12:55 | 23.36510 | 52.87790 | 26397 ft | 453 kts | 242° |
| 2026-05-04 12:55 | 23.34987 | 52.84788 | 26618 ft | 454 kts | 242° |
| 2026-05-04 12:55 | 23.33460 | 52.81778 | 26845 ft | 455 kts | 242° |
| 2026-05-04 12:56 | 23.31926 | 52.78765 | 27061 ft | 455 kts | 242° |
| 2026-05-04 12:56 | 23.30386 | 52.75759 | 27397 ft | 453 kts | 242° |
| 2026-05-04 12:56 | 23.28845 | 52.72772 | 27706 ft | 452 kts | 242° |
| 2026-05-04 12:56 | 23.27306 | 52.69796 | 28029 ft | 451 kts | 242° |
| 2026-05-04 12:57 | 23.25775 | 52.66828 | 28345 ft | 449 kts | 242° |
| 2026-05-04 12:57 | 23.24248 | 52.63867 | 28659 ft | 448 kts | 242° |
| 2026-05-04 12:57 | 23.22727 | 52.60917 | 28981 ft | 446 kts | 242° |
| 2026-05-04 12:57 | 23.21212 | 52.57977 | 29293 ft | 445 kts | 242° |
| 2026-05-04 12:58 | 23.19702 | 52.55052 | 29603 ft | 444 kts | 242° |
| 2026-05-04 12:58 | 23.18243 | 52.52106 | 29881 ft | 442 kts | 246° |
| 2026-05-04 12:58 | 23.17144 | 52.48993 | 30108 ft | 441 kts | 251° |
| 2026-05-04 12:58 | 23.16153 | 52.45845 | 30327 ft | 440 kts | 251° |
| 2026-05-04 12:59 | 23.15157 | 52.42693 | 30557 ft | 440 kts | 251° |
| 2026-05-04 12:59 | 23.14165 | 52.39550 | 30787 ft | 439 kts | 251° |
| 2026-05-04 12:59 | 23.13174 | 52.36410 | 31019 ft | 439 kts | 252° |
| 2026-05-04 12:59 | 23.12195 | 52.33318 | 31244 ft | 438 kts | 252° |
| 2026-05-04 13:00 | 23.11205 | 52.30194 | 31461 ft | 437 kts | 252° |
| 2026-05-04 13:00 | 23.10212 | 52.27068 | 31697 ft | 437 kts | 252° |
| 2026-05-04 13:00 | 23.09220 | 52.23957 | 31928 ft | 436 kts | 252° |
| 2026-05-04 13:00 | 23.08228 | 52.20847 | 32156 ft | 435 kts | 252° |
| 2026-05-04 13:01 | 23.07241 | 52.17743 | 32369 ft | 435 kts | 252° |
| 2026-05-04 13:01 | 23.06253 | 52.14641 | 32587 ft | 434 kts | 252° |
| 2026-05-04 13:01 | 23.05269 | 52.11543 | 32801 ft | 434 kts | 252° |
| 2026-05-04 13:01 | 23.04283 | 52.08448 | 33016 ft | 433 kts | 252° |
| 2026-05-04 13:02 | 23.03296 | 52.05364 | 33227 ft | 433 kts | 252° |
| 2026-05-04 13:02 | 23.02307 | 52.02281 | 33432 ft | 432 kts | 252° |
| 2026-05-04 13:02 | 23.01317 | 51.99197 | 33634 ft | 432 kts | 252° |
| 2026-05-04 13:02 | 23.00329 | 51.96112 | 33745 ft | 433 kts | 252° |
| 2026-05-04 13:03 | 22.99316 | 51.92946 | 33753 ft | 434 kts | 252° |
| 2026-05-04 13:03 | 22.95746 | 51.81815 | 33752 ft | 435 kts | 252° |
| 2026-05-04 13:04 | 22.89158 | 51.61353 | 33761 ft | 435 kts | 252° |
| 2026-05-04 13:04 | 22.82525 | 51.36231 | 33718 ft | 436 kts | 260° |
| 2026-05-04 13:05 | 22.77950 | 51.10527 | 33715 ft | 432 kts | 259° |
| 2026-05-04 13:05 | 22.75650 | 50.97702 | 33829 ft | 431 kts | 259° |
| 2026-05-04 13:05 | 22.73329 | 50.84886 | 33836 ft | 433 kts | 259° |
| 2026-05-04 13:06 | 22.68681 | 50.59169 | 33643 ft | 437 kts | 259° |
| 2026-05-04 13:06 | 22.63958 | 50.33481 | 33828 ft | 432 kts | 259° |
| 2026-05-04 13:06 | 22.62383 | 50.24967 | 33689 ft | 434 kts | 259° |
| 2026-05-04 13:07 | 22.60000 | 50.12126 | 33805 ft | 432 kts | 259° |
| 2026-05-04 13:07 | 22.55222 | 49.86436 | 33751 ft | 438 kts | 258° |
| 2026-05-04 13:07 | 22.53789 | 49.73482 | 33647 ft | 438 kts | 276° |
| 2026-05-04 13:08 | 22.55114 | 49.60338 | 33737 ft | 433 kts | 274° |
| 2026-05-04 13:08 | 22.56316 | 49.47240 | 33839 ft | 433 kts | 275° |
| 2026-05-04 13:08 | 22.57935 | 49.29981 | 33661 ft | 438 kts | 275° |
| 2026-05-04 13:08 | 22.58752 | 49.21182 | 33798 ft | 437 kts | 274° |
| 2026-05-04 13:09 | 22.59950 | 49.08144 | 33702 ft | 439 kts | 275° |
| 2026-05-04 13:09 | 22.62305 | 48.82197 | 33661 ft | 436 kts | 274° |
| 2026-05-04 13:10 | 22.64636 | 48.56172 | 33790 ft | 430 kts | 274° |
| 2026-05-04 13:10 | 22.66893 | 48.30187 | 33850 ft | 434 kts | 274° |
| 2026-05-04 13:11 | 22.69136 | 48.04137 | 33668 ft | 438 kts | 274° |
| 2026-05-04 13:11 | 22.71338 | 47.77997 | 33637 ft | 435 kts | 273° |
| 2026-05-04 13:11 | 22.72415 | 47.64948 | 33751 ft | 433 kts | 273° |
| 2026-05-04 13:12 | 22.73481 | 47.51893 | 33817 ft | 431 kts | 273° |
| 2026-05-04 13:12 | 22.75582 | 47.25791 | 33914 ft | 434 kts | 273° |
| 2026-05-04 13:13 | 22.77655 | 46.99697 | 33790 ft | 436 kts | 273° |
| 2026-05-04 13:13 | 22.79682 | 46.73729 | 33687 ft | 434 kts | 273° |
| 2026-05-04 13:14 | 22.81650 | 46.47803 | 33864 ft | 428 kts | 273° |
| 2026-05-04 13:14 | 22.83566 | 46.22198 | 33948 ft | 428 kts | 272° |
| 2026-05-04 13:15 | 22.85427 | 45.96412 | 33892 ft | 431 kts | 272° |
| 2026-05-04 13:15 | 22.87264 | 45.70698 | 33735 ft | 430 kts | 272° |
| 2026-05-04 13:16 | 22.89043 | 45.45090 | 33729 ft | 425 kts | 272° |
| 2026-05-04 13:16 | 22.90774 | 45.19555 | 33855 ft | 420 kts | 272° |
| 2026-05-04 13:17 | 22.92452 | 44.94106 | 33962 ft | 421 kts | 272° |
| 2026-05-04 13:17 | 22.94095 | 44.68582 | 33891 ft | 426 kts | 272° |
| 2026-05-04 13:18 | 22.93168 | 44.43197 | 33779 ft | 424 kts | 266° |
| 2026-05-04 13:18 | 22.92018 | 44.17863 | 33741 ft | 420 kts | 265° |
| 2026-05-04 13:19 | 22.90847 | 43.92825 | 33814 ft | 413 kts | 265° |
| 2026-05-04 13:19 | 22.90243 | 43.80272 | 33932 ft | 420 kts | 265° |
| 2026-05-04 13:19 | 22.89626 | 43.67570 | 33930 ft | 421 kts | 265° |
| 2026-05-04 13:20 | 22.88388 | 43.42228 | 33950 ft | 419 kts | 265° |
| 2026-05-04 13:20 | 22.87085 | 43.17012 | 33956 ft | 418 kts | 265° |
| 2026-05-04 13:21 | 22.85742 | 42.91852 | 33966 ft | 418 kts | 265° |
| 2026-05-04 13:21 | 22.84744 | 42.73395 | 33977 ft | 418 kts | 265° |
| 2026-05-04 13:22 | 22.84400 | 42.67105 | 33954 ft | 418 kts | 265° |
| 2026-05-04 13:22 | 22.84050 | 42.60849 | 33979 ft | 419 kts | 264° |
| 2026-05-04 13:23 | 22.83697 | 42.54545 | 33979 ft | 419 kts | 265° |
| 2026-05-04 13:23 | 22.83347 | 42.48234 | 33993 ft | 419 kts | 265° |
| 2026-05-04 13:24 | 22.82993 | 42.41927 | 33999 ft | 419 kts | 264° |
| 2026-05-04 13:24 | 22.82627 | 42.35623 | 34021 ft | 419 kts | 264° |
| 2026-05-04 13:25 | 22.82075 | 42.26219 | 34023 ft | 418 kts | 264° |
| 2026-05-04 13:25 | 22.81711 | 42.19931 | 34018 ft | 418 kts | 264° |
| 2026-05-04 13:26 | 22.81348 | 42.13648 | 34029 ft | 417 kts | 264° |
| 2026-05-04 13:26 | 22.80978 | 42.07363 | 34003 ft | 417 kts | 264° |
| 2026-05-04 13:27 | 22.80605 | 42.01081 | 33999 ft | 418 kts | 264° |
| 2026-05-04 13:27 | 22.80231 | 41.94824 | 34018 ft | 419 kts | 264° |
| 2026-05-04 13:28 | 22.79846 | 41.88522 | 34016 ft | 419 kts | 264° |
| 2026-05-04 13:28 | 22.79298 | 41.82242 | 34018 ft | 418 kts | 262° |
| 2026-05-04 13:29 | 22.78648 | 41.75980 | 34030 ft | 418 kts | 262° |
| 2026-05-04 13:29 | 22.78017 | 41.69724 | 34029 ft | 417 kts | 262° |
| 2026-05-04 13:30 | 22.77417 | 41.63481 | 34026 ft | 416 kts | 263° |
| 2026-05-04 13:30 | 22.76822 | 41.57236 | 34024 ft | 416 kts | 263° |
| 2026-05-04 13:31 | 22.76220 | 41.51009 | 34031 ft | 414 kts | 262° |
| 2026-05-04 13:31 | 22.75614 | 41.44806 | 34003 ft | 414 kts | 262° |
| 2026-05-04 13:32 | 22.75008 | 41.38602 | 34011 ft | 414 kts | 262° |
| 2026-05-04 13:32 | 22.74368 | 41.32437 | 34020 ft | 413 kts | 258° |
| 2026-05-04 13:33 | 22.72591 | 41.26548 | 34021 ft | 412 kts | 249° |
| 2026-05-04 13:33 | 22.70482 | 41.20779 | 34020 ft | 411 kts | 249° |
| 2026-05-04 13:34 | 22.68379 | 41.15012 | 34021 ft | 411 kts | 249° |
| 2026-05-04 13:34 | 22.66270 | 41.09254 | 34028 ft | 411 kts | 249° |
| 2026-05-04 13:35 | 22.63091 | 41.00656 | 34009 ft | 410 kts | 249° |
| 2026-05-04 13:36 | 22.60989 | 40.94951 | 34009 ft | 410 kts | 249° |
| 2026-05-04 13:36 | 22.58879 | 40.89215 | 34004 ft | 410 kts | 249° |
| 2026-05-04 13:37 | 22.56767 | 40.83470 | 34008 ft | 411 kts | 249° |
| 2026-05-04 13:37 | 22.54648 | 40.77724 | 34009 ft | 411 kts | 248° |
| 2026-05-04 13:38 | 22.52519 | 40.71988 | 33987 ft | 411 kts | 248° |
| 2026-05-04 13:38 | 22.51455 | 40.69119 | 33723 ft | 411 kts | 248° |
| 2026-05-04 13:38 | 22.50391 | 40.66246 | 33452 ft | 413 kts | 248° |
| 2026-05-04 13:38 | 22.49322 | 40.63352 | 33199 ft | 415 kts | 248° |
| 2026-05-04 13:39 | 22.48249 | 40.60452 | 32949 ft | 416 kts | 248° |
| 2026-05-04 13:39 | 22.47168 | 40.57540 | 32703 ft | 417 kts | 248° |
| 2026-05-04 13:39 | 22.46086 | 40.54629 | 32456 ft | 418 kts | 248° |
| 2026-05-04 13:39 | 22.45017 | 40.51749 | 32216 ft | 418 kts | 248° |
| 2026-05-04 13:40 | 22.43929 | 40.48827 | 31987 ft | 419 kts | 248° |
| 2026-05-04 13:40 | 22.42840 | 40.45908 | 31758 ft | 419 kts | 248° |
| 2026-05-04 13:40 | 22.41751 | 40.42985 | 31515 ft | 419 kts | 248° |
| 2026-05-04 13:40 | 22.40660 | 40.40050 | 31278 ft | 420 kts | 248° |
| 2026-05-04 13:41 | 22.39569 | 40.37118 | 31060 ft | 420 kts | 248° |
| 2026-05-04 13:41 | 22.38476 | 40.34185 | 30826 ft | 421 kts | 248° |
| 2026-05-04 13:41 | 22.37378 | 40.31244 | 30580 ft | 422 kts | 248° |
| 2026-05-04 13:42 | 22.35169 | 40.25342 | 29462 ft | 427 kts | 248° |
| 2026-05-04 13:42 | 22.34056 | 40.22362 | 28623 ft | 429 kts | 248° |
| 2026-05-04 13:42 | 22.32939 | 40.19372 | 27905 ft | 428 kts | 248° |
| 2026-05-04 13:42 | 22.31832 | 40.16413 | 27398 ft | 422 kts | 248° |
| 2026-05-04 13:43 | 22.30737 | 40.13493 | 26863 ft | 418 kts | 248° |
| 2026-05-04 13:43 | 22.29648 | 40.10594 | 26308 ft | 414 kts | 248° |
| 2026-05-04 13:43 | 22.28567 | 40.07726 | 25758 ft | 411 kts | 248° |
| 2026-05-04 13:43 | 22.27509 | 40.04915 | 25230 ft | 408 kts | 248° |
| 2026-05-04 13:44 | 22.26346 | 40.02084 | 24623 ft | 407 kts | 242° |
| 2026-05-04 13:44 | 22.24874 | 39.99537 | 24128 ft | 404 kts | 238° |
| 2026-05-04 13:44 | 22.23348 | 39.97052 | 24007 ft | 391 kts | 238° |
| 2026-05-04 13:44 | 22.21870 | 39.94643 | 23890 ft | 379 kts | 237° |
| 2026-05-04 13:45 | 22.20432 | 39.92294 | 23741 ft | 368 kts | 238° |
| 2026-05-04 13:45 | 22.19045 | 39.90022 | 23638 ft | 357 kts | 238° |
| 2026-05-04 13:45 | 22.17701 | 39.87817 | 23476 ft | 348 kts | 238° |
| 2026-05-04 13:45 | 22.16379 | 39.85648 | 23048 ft | 345 kts | 238° |
| 2026-05-04 13:46 | 22.15061 | 39.83486 | 22562 ft | 344 kts | 238° |
| 2026-05-04 13:46 | 22.13746 | 39.81330 | 22037 ft | 344 kts | 238° |
| 2026-05-04 13:46 | 22.12439 | 39.79193 | 21684 ft | 340 kts | 238° |
| 2026-05-04 13:46 | 22.11170 | 39.77118 | 21384 ft | 334 kts | 238° |
| 2026-05-04 13:47 | 22.09880 | 39.75011 | 20594 ft | 329 kts | 238° |
| 2026-05-04 13:47 | 22.08629 | 39.72969 | 19955 ft | 325 kts | 238° |
| 2026-05-04 13:47 | 22.07383 | 39.70941 | 19485 ft | 322 kts | 238° |
| 2026-05-04 13:47 | 22.06152 | 39.68935 | 19140 ft | 319 kts | 238° |
| 2026-05-04 13:48 | 22.04928 | 39.66943 | 18770 ft | 317 kts | 238° |
| 2026-05-04 13:48 | 22.03705 | 39.64954 | 18357 ft | 320 kts | 238° |
| 2026-05-04 13:48 | 22.02476 | 39.62954 | 17882 ft | 320 kts | 238° |
| 2026-05-04 13:48 | 22.01252 | 39.60959 | 17465 ft | 318 kts | 238° |
| 2026-05-04 13:49 | 22.00055 | 39.59009 | 17050 ft | 316 kts | 238° |
| 2026-05-04 13:49 | 21.98855 | 39.57054 | 16737 ft | 310 kts | 237° |
| 2026-05-04 13:49 | 21.97665 | 39.55115 | 16280 ft | 311 kts | 237° |
| 2026-05-04 13:49 | 21.96475 | 39.53178 | 15878 ft | 309 kts | 236° |
| 2026-05-04 13:50 | 21.95283 | 39.51241 | 15405 ft | 310 kts | 236° |
| 2026-05-04 13:50 | 21.94146 | 39.49292 | 15091 ft | 306 kts | 242° |
| 2026-05-04 13:50 | 21.93222 | 39.47230 | 14752 ft | 303 kts | 243° |
| 2026-05-04 13:50 | 21.92319 | 39.45199 | 14353 ft | 299 kts | 243° |
| 2026-05-04 13:51 | 21.91421 | 39.43182 | 13572 ft | 298 kts | 242° |
| 2026-05-04 13:51 | 21.90522 | 39.41169 | 12686 ft | 298 kts | 242° |
| 2026-05-04 13:51 | 21.89634 | 39.39170 | 12043 ft | 293 kts | 242° |
| 2026-05-04 13:51 | 21.88757 | 39.37196 | 11504 ft | 292 kts | 242° |
| 2026-05-04 13:52 | 21.86996 | 39.33255 | 10444 ft | 296 kts | 244° |
| 2026-05-04 13:52 | 21.86098 | 39.31246 | 10033 ft | 297 kts | 244° |
| 2026-05-04 13:52 | 21.85206 | 39.29247 | 9635 ft | 297 kts | 244° |
| 2026-05-04 13:53 | 21.84315 | 39.27252 | 9383 ft | 291 kts | 244° |
| 2026-05-04 13:53 | 21.83457 | 39.25333 | 9313 ft | 279 kts | 244° |
| 2026-05-04 13:53 | 21.82859 | 39.24139 | 9263 ft | 270 kts | 233° |
| 2026-05-04 13:54 | 21.79634 | 39.22639 | 8770 ft | 269 kts | 168° |
| 2026-05-04 13:54 | 21.77844 | 39.23266 | 8352 ft | 271 kts | 160° |
| 2026-05-04 13:54 | 21.74269 | 39.24703 | 7533 ft | 277 kts | 160° |
| 2026-05-04 13:55 | 21.72449 | 39.25430 | 7117 ft | 281 kts | 160° |
| 2026-05-04 13:55 | 21.68763 | 39.26895 | 6318 ft | 287 kts | 160° |
| 2026-05-04 13:55 | 21.66880 | 39.27640 | 5910 ft | 290 kts | 159° |
| 2026-05-04 13:56 | 21.64976 | 39.28394 | 5495 ft | 294 kts | 159° |
| 2026-05-04 13:56 | 21.63046 | 39.29159 | 5073 ft | 297 kts | 159° |
| 2026-05-04 13:56 | 21.59119 | 39.30708 | 4223 ft | 304 kts | 159° |
| 2026-05-04 13:57 | 21.57119 | 39.31487 | 3784 ft | 307 kts | 160° |
| 2026-05-04 13:57 | 21.55104 | 39.32273 | 3362 ft | 309 kts | 161° |
| 2026-05-04 13:58 | 21.49499 | 39.32405 | 2718 ft | 246 kts | 232° |
| 2026-05-04 13:58 | 21.49228 | 39.29308 | 2620 ft | 213 kts | 300° |
| 2026-05-04 13:58 | 21.50072 | 39.28004 | 2582 ft | 212 kts | 311° |
| 2026-05-04 13:59 | 21.51089 | 39.26861 | 2542 ft | 210 kts | 314° |
| 2026-05-04 13:59 | 21.52035 | 39.25670 | 2488 ft | 210 kts | 309° |
| 2026-05-04 13:59 | 21.53970 | 39.23371 | 2391 ft | 210 kts | 323° |
| 2026-05-04 14:00 | 21.55241 | 39.22585 | 2286 ft | 205 kts | 335° |
| 2026-05-04 14:00 | 21.57643 | 39.21602 | 1842 ft | 170 kts | 338° |
| 2026-05-04 14:00 | 21.58699 | 39.21186 | 1660 ft | 153 kts | 338° |
| 2026-05-04 14:01 | 21.59679 | 39.20800 | 1460 ft | 147 kts | 339° |
| 2026-05-04 14:01 | 21.60629 | 39.20425 | 1276 ft | 144 kts | 339° |
| 2026-05-04 14:01 | 21.62500 | 39.19688 | 913 ft | 145 kts | 339° |
| 2026-05-04 14:02 | 21.63462 | 39.19302 | 725 ft | 147 kts | 337° |
| 2026-05-04 14:02 | 21.64412 | 39.18923 | 535 ft | 145 kts | 337° |
| 2026-05-04 14:02 | 21.65366 | 39.18542 | 368 ft | 146 kts | 338° |
| 2026-05-04 14:02 | 21.66322 | 39.18174 | 198 ft | 146 kts | 336° |
| 2026-05-04 14:03 | 21.67251 | 39.17811 | 37 ft | 134 kts | 335° |
| 2026-05-04 14:03 | 21.67983 | 39.17524 | 32 ft | 87 kts | 340° |
| 2026-05-04 14:03 | 21.68451 | 39.17337 | 28 ft | 64 kts | 341° |
| 2026-05-04 14:03 | 21.68755 | 39.17212 | 25 ft | 32 kts | 327° |
| 2026-05-04 14:04 | 21.68945 | 39.16981 | 29 ft | 9 kts | 280° |
| 2026-05-04 14:04 | 21.68909 | 39.16935 | 26 ft | 9 kts | 190° |
| 2026-05-04 14:04 | 21.68849 | 39.16945 | 26 ft | 9 kts | 162° |
| 2026-05-04 14:05 | 21.68829 | 39.16953 | 26 ft | 2 kts | 160° |
| 2026-05-04 14:05 | 21.68814 | 39.16959 | 26 ft | 3 kts | 159° |
| 2026-05-04 14:05 | 21.68790 | 39.16969 | 27 ft | 7 kts | 159° |
| 2026-05-04 14:06 | 21.68735 | 39.16992 | 27 ft | 9 kts | 160° |
| 2026-05-04 14:06 | 21.68665 | 39.17019 | 27 ft | 13 kts | 160° |
| 2026-05-04 14:06 | 21.68572 | 39.17054 | 27 ft | 15 kts | 160° |
| 2026-05-04 14:06 | 21.68475 | 39.17093 | 27 ft | 15 kts | 159° |
| 2026-05-04 14:07 | 21.68377 | 39.17133 | 28 ft | 15 kts | 160° |
| 2026-05-04 14:07 | 21.68275 | 39.17171 | 28 ft | 16 kts | 160° |
| 2026-05-04 14:07 | 21.68172 | 39.17212 | 29 ft | 16 kts | 159° |
| 2026-05-04 14:07 | 21.68069 | 39.17253 | 30 ft | 16 kts | 161° |
| 2026-05-04 14:08 | 21.67986 | 39.17206 | 30 ft | 15 kts | 246° |
| 2026-05-04 14:08 | 21.67950 | 39.17098 | 30 ft | 16 kts | 250° |
| 2026-05-04 14:08 | 21.67865 | 39.17052 | 30 ft | 15 kts | 167° |
| 2026-05-04 14:08 | 21.67763 | 39.17092 | 31 ft | 16 kts | 161° |
| 2026-05-04 14:09 | 21.67552 | 39.17173 | 32 ft | 16 kts | 160° |
| 2026-05-04 14:09 | 21.67458 | 39.17201 | 31 ft | 10 kts | 123° |
| 2026-05-04 14:10 | 21.67426 | 39.17274 | 32 ft | 0 kts | 116° |